Time;durP1;ratioP1;P1;durP2;ratioP2;P2;SDS_P1;SDS_P2;PMS_P1;PMS_P2;Temp;Humidity;BMP_temperature;BMP_pressure;BME280_temperature;BME280_humidity;BME280_pressure;Samples;Min_cycle;Max_cycle;Signal;HPM_P1;HPM_P2
2023/02/28 00:09:46;;;;;;;8.40;4.68;;;-0.30;99.90;;;;;;20868922;28;20033;-79
2023/02/28 00:19:49;;;;;;;12.57;4.88;;;-0.30;99.90;;;;;;20855375;28;20064;-78
2023/02/28 00:29:49;;;;;;;14.45;5.70;;;-0.40;99.90;;;;;;20780738;28;20030;-79
2023/02/28 00:39:50;;;;;;;10.52;4.97;;;-0.30;99.90;;;;;;20767875;28;20108;-78
2023/02/28 00:49:51;;;;;;;9.23;5.15;;;-0.30;99.90;;;;;;20807291;28;20033;-78
2023/02/28 00:59:54;;;;;;;11.45;5.80;;;-0.30;99.90;;;;;;20813120;28;20033;-79
2023/02/28 01:09:55;;;;;;;10.02;5.20;;;-0.40;99.90;;;;;;20822350;28;20060;-79
2023/02/28 01:19:56;;;;;;;9.25;5.30;;;-0.40;99.90;;;;;;20839970;28;20030;-79
2023/02/28 01:29:59;;;;;;;11.57;5.93;;;-0.30;99.90;;;;;;20821450;28;20076;-79
2023/02/28 01:40:00;;;;;;;11.35;5.13;;;-0.40;99.90;;;;;;20821835;28;20094;-79
2023/02/28 01:50:04;;;;;;;11.13;5.57;;;-0.40;99.90;;;;;;20837545;28;20434;-79
2023/02/28 02:00:09;;;;;;;10.60;5.38;;;-0.40;99.90;;;;;;20818928;28;20500;-79
2023/02/28 02:10:34;;;;;;;8.18;4.88;;;-0.40;99.90;;;;;;20817985;28;20099;-79
2023/02/28 02:20:46;;;;;;;13.52;5.38;;;-0.40;99.90;;;;;;20817804;28;20036;-80
2023/02/28 02:31:02;;;;;;;8.45;5.20;;;-0.50;99.90;;;;;;20835142;28;20092;-79
2023/02/28 02:41:14;;;;;;;11.70;6.50;;;-0.40;99.90;;;;;;20833517;28;20500;-78
2023/02/28 02:51:18;;;;;;;12.10;5.65;;;-0.40;99.90;;;;;;20815307;28;20041;-80
2023/02/28 03:01:27;;;;;;;12.98;5.32;;;-0.40;99.90;;;;;;20814181;28;20033;-79
2023/02/28 03:11:29;;;;;;;9.95;5.70;;;-0.40;99.90;;;;;;20813481;28;20455;-78
2023/02/28 03:22:13;;;;;;;9.60;5.22;;;-0.40;99.90;;;;;;20812253;28;20107;-80
2023/02/28 03:32:29;;;;;;;10.02;5.32;;;-0.50;99.90;;;;;;20760388;28;20069;-81
2023/02/28 03:42:34;;;;;;;11.05;5.22;;;-0.50;99.90;;;;;;20875974;28;20033;-80
2023/02/28 03:52:41;;;;;;;10.05;5.75;;;-0.50;99.90;;;;;;20877104;28;20116;-80
2023/02/28 04:02:42;;;;;;;11.88;5.38;;;-0.50;99.90;;;;;;20827929;28;20037;-79
2023/02/28 04:12:43;;;;;;;9.98;5.78;;;-0.60;99.90;;;;;;20827472;28;20028;-79
2023/02/28 04:22:44;;;;;;;10.73;5.07;;;-0.60;99.90;;;;;;20826955;28;20029;-79
2023/02/28 04:32:44;;;;;;;9.00;5.47;;;-0.50;99.90;;;;;;20828354;28;20037;-81
2023/02/28 04:42:45;;;;;;;10.07;5.40;;;-0.50;99.90;;;;;;20858038;28;20083;-78
2023/02/28 04:52:46;;;;;;;10.20;6.05;;;-0.50;99.90;;;;;;20872684;28;20057;-79
2023/02/28 05:02:47;;;;;;;8.52;5.30;;;-0.50;99.90;;;;;;20825157;28;20034;-76
2023/02/28 05:12:48;;;;;;;12.68;6.03;;;-0.50;99.90;;;;;;20821484;28;20111;-77
2023/02/28 05:22:49;;;;;;;12.55;6.10;;;-0.60;99.90;;;;;;20881532;28;20037;-78
2023/02/28 05:32:51;;;;;;;13.85;5.88;;;-0.50;99.90;;;;;;20897594;28;20029;-79
2023/02/28 05:42:52;;;;;;;9.27;5.97;;;-0.50;99.90;;;;;;20842995;28;20060;-79
2023/02/28 05:52:56;;;;;;;11.13;5.65;;;-0.50;99.90;;;;;;20838648;28;20444;-79
2023/02/28 06:02:59;;;;;;;11.93;5.70;;;-0.60;99.90;;;;;;20836085;28;20421;-77
2023/02/28 06:13:02;;;;;;;11.05;6.53;;;-0.60;99.90;;;;;;20837673;28;20033;-81
2023/02/28 06:23:03;;;;;;;11.20;6.05;;;-0.50;99.90;;;;;;20837644;28;20518;-80
2023/02/28 06:33:04;;;;;;;17.05;6.20;;;-0.50;99.90;;;;;;20857028;28;20038;-80
2023/02/28 06:43:04;;;;;;;11.63;6.45;;;-0.50;99.90;;;;;;20841518;28;20041;-79
2023/02/28 06:53:05;;;;;;;11.43;6.40;;;-0.50;99.90;;;;;;20805437;28;20116;-79
2023/02/28 07:03:06;;;;;;;10.50;6.50;;;-0.40;99.90;;;;;;20828396;28;20548;-79
2023/02/28 07:13:08;;;;;;;11.18;6.68;;;-0.40;99.90;;;;;;20828464;28;20041;-79
2023/02/28 07:23:09;;;;;;;11.70;6.78;;;-0.40;99.90;;;;;;20845661;28;20120;-80
2023/02/28 07:33:10;;;;;;;11.52;6.20;;;-0.40;99.90;;;;;;20827426;28;20029;-79
2023/02/28 07:43:11;;;;;;;14.15;6.88;;;-0.30;99.90;;;;;;20827501;28;20037;-79
2023/02/28 07:53:11;;;;;;;12.15;6.07;;;-0.20;99.90;;;;;;20846206;28;20033;-80
2023/02/28 08:03:13;;;;;;;15.43;7.25;;;-0.20;99.90;;;;;;20843965;28;20046;-81
2023/02/28 08:13:14;;;;;;;14.15;6.93;;;-0.10;99.90;;;;;;20827965;28;20133;-79
2023/02/28 08:23:14;;;;;;;14.48;6.97;;;0.00;99.90;;;;;;20853193;28;20477;-81
2023/02/28 08:33:15;;;;;;;10.98;6.00;;;0.80;99.90;;;;;;20865994;28;20032;-80
2023/02/28 08:43:16;;;;;;;10.52;5.85;;;1.20;99.90;;;;;;20836756;28;20029;-81
2023/02/28 08:53:17;;;;;;;13.45;7.07;;;0.30;99.90;;;;;;20854269;28;20036;-78
2023/02/28 09:03:18;;;;;;;11.48;6.78;;;0.40;99.90;;;;;;20846784;28;20040;-79
2023/02/28 09:13:19;;;;;;;14.93;6.97;;;0.50;99.90;;;;;;20840563;28;20026;-81
2023/02/28 09:23:20;;;;;;;14.48;7.55;;;0.70;99.90;;;;;;20814693;28;20033;-81
2023/02/28 09:33:22;;;;;;;12.32;7.00;;;0.80;99.90;;;;;;20856207;28;20065;-81
2023/02/28 09:43:26;;;;;;;59.58;16.55;;;0.80;99.90;;;;;;20856614;28;20036;-81
2023/02/28 09:53:33;;;;;;;19.60;7.43;;;1.30;99.90;;;;;;20858045;28;20040;-79
2023/02/28 10:03:44;;;;;;;19.15;8.60;;;1.10;99.90;;;;;;20838290;28;20045;-81
2023/02/28 10:13:50;;;;;;;;;;;1.10;99.90;;;;;;20913844;28;20021;-81
2023/02/28 10:23:57;;;;;;;12.90;6.60;;;1.50;99.90;;;;;;20919832;28;19955;-81
2023/02/28 10:33:58;;;;;;;14.32;7.22;;;1.40;99.90;;;;;;20935803;28;20100;-81
2023/02/28 10:44:20;;;;;;;12.30;6.97;;;1.60;99.90;;;;;;20878382;28;20083;-80
2023/02/28 10:54:35;;;;;;;11.75;6.85;;;1.20;99.90;;;;;;20855643;28;20041;-81
2023/02/28 11:04:39;;;;;;;13.43;7.47;;;1.30;99.90;;;;;;20864206;28;20137;-80
2023/02/28 11:14:49;;;;;;;14.43;7.28;;;1.50;99.90;;;;;;20907690;28;20121;-81
2023/02/28 11:24:57;;;;;;;21.98;7.43;;;1.50;99.90;;;;;;20923890;28;20029;-81
2023/02/28 11:35:22;;;;;;;11.75;7.05;;;1.50;99.90;;;;;;20925147;28;20040;-79
2023/02/28 11:45:23;;;;;;;12.02;7.18;;;1.60;99.90;;;;;;20854931;28;20372;-80
2023/02/28 11:56:07;;;;;;;13.98;7.35;;;1.50;99.90;;;;;;20842410;28;20095;-79
2023/02/28 12:06:19;;;;;;;14.20;7.85;;;1.70;99.90;;;;;;20770534;28;20156;-79
2023/02/28 12:16:45;;;;;;;12.63;6.88;;;1.40;99.90;;;;;;20840242;28;20063;-79
2023/02/28 12:26:47;;;;;;;19.45;10.60;;;1.50;99.90;;;;;;20829560;28;20025;-79
2023/02/28 12:36:51;;;;;;;54.70;17.73;;;1.60;99.90;;;;;;20830016;28;20033;-79
2023/02/28 12:46:56;;;;;;;87.57;25.30;;;1.60;99.90;;;;;;20828708;28;20057;-80
2023/02/28 12:57:22;;;;;;;35.40;13.13;;;1.80;99.90;;;;;;20839894;28;20038;-79
2023/02/28 13:07:29;;;;;;;17.98;8.90;;;1.90;99.90;;;;;;20845395;28;20038;-80
2023/02/28 13:17:30;;;;;;;22.25;9.13;;;2.00;99.90;;;;;;20845278;28;20030;-79
2023/02/28 13:27:42;;;;;;;33.47;11.98;;;2.10;99.90;;;;;;20851569;28;20041;-79
2023/02/28 13:37:49;;;;;;;18.38;9.52;;;2.20;99.90;;;;;;20843900;28;20432;-80
2023/02/28 13:48:01;;;;;;;18.15;9.27;;;1.90;99.90;;;;;;20841516;28;20029;-79
2023/02/28 13:58:16;;;;;;;16.17;8.30;;;2.30;99.90;;;;;;20823608;28;20029;-80
2023/02/28 14:08:22;;;;;;;15.48;9.13;;;2.20;99.90;;;;;;20840662;28;20091;-79
2023/02/28 14:18:30;;;;;;;19.05;10.35;;;2.20;99.90;;;;;;20842732;28;20090;-79
2023/02/28 14:28:40;;;;;;;16.00;9.75;;;2.10;99.90;;;;;;20840685;28;20029;-79
2023/02/28 14:39:11;;;;;;;18.13;8.27;;;2.10;99.90;;;;;;20842101;28;20033;-79
2023/02/28 14:49:23;;;;;;;18.33;9.83;;;2.20;99.90;;;;;;20858823;28;20423;-81
2023/02/28 14:59:29;;;;;;;20.77;9.35;;;2.00;99.90;;;;;;20864909;28;20037;-80
2023/02/28 15:09:30;;;;;;;39.00;14.68;;;2.10;99.90;;;;;;20862223;28;20029;-80
2023/02/28 15:19:37;;;;;;;22.95;12.20;;;2.00;99.90;;;;;;20860611;28;20044;-79
2023/02/28 15:29:53;;;;;;;25.60;13.27;;;2.00;99.90;;;;;;20853450;28;20063;-80
2023/02/28 15:39:56;;;;;;;19.48;9.82;;;1.80;99.90;;;;;;20832405;28;20092;-81
2023/02/28 15:50:12;;;;;;;25.63;11.63;;;1.80;99.90;;;;;;20854745;28;20036;-80
2023/02/28 16:00:16;;;;;;;23.90;11.10;;;1.80;99.90;;;;;;20830156;28;20042;-80
2023/02/28 16:10:17;;;;;;;22.50;10.32;;;1.70;99.90;;;;;;20824959;28;20103;-82
2023/02/28 16:20:21;;;;;;;23.73;11.32;;;1.60;99.90;;;;;;20841885;28;20029;-78
2023/02/28 16:30:25;;;;;;;18.58;10.50;;;1.70;99.90;;;;;;20839162;28;20044;-79
2023/02/28 16:40:28;;;;;;;20.50;10.93;;;1.50;99.90;;;;;;20839179;28;20059;-78
2023/02/28 16:50:32;;;;;;;22.52;10.95;;;1.30;99.90;;;;;;20831920;28;20660;-79
2023/02/28 17:00:33;;;;;;;22.63;10.52;;;1.00;99.90;;;;;;20839140;28;20045;-80
2023/02/28 17:10:34;;;;;;;25.55;13.35;;;0.80;99.90;;;;;;20844078;28;20041;-80
2023/02/28 17:20:34;;;;;;;23.75;12.40;;;0.60;99.90;;;;;;20826284;28;20511;-79
2023/02/28 17:30:35;;;;;;;27.48;14.55;;;0.40;99.90;;;;;;20803670;28;20040;-79
2023/02/28 17:40:36;;;;;;;23.42;11.13;;;0.20;99.90;;;;;;20828456;28;20056;-79
2023/02/28 17:50:37;;;;;;;98.38;36.47;;;0.10;99.90;;;;;;20841240;28;20037;-78
2023/02/28 18:00:38;;;;;;;34.30;16.35;;;0.20;99.90;;;;;;20836532;28;20550;-79
2023/02/28 18:10:38;;;;;;;46.08;17.38;;;0.20;99.90;;;;;;20835351;28;20033;-79
2023/02/28 18:20:39;;;;;;;46.20;20.80;;;0.10;99.90;;;;;;20835705;28;20040;-78
2023/02/28 18:30:40;;;;;;;45.60;18.63;;;0.00;99.90;;;;;;20808225;28;20507;-78
2023/02/28 18:40:41;;;;;;;45.42;18.52;;;0.00;99.90;;;;;;20865607;28;20032;-78
2023/02/28 18:50:42;;;;;;;116.38;40.10;;;-0.10;99.90;;;;;;20866880;28;20036;-78
2023/02/28 19:00:43;;;;;;;39.95;17.05;;;-0.30;99.90;;;;;;20850494;28;20036;-79
2023/02/28 19:10:44;;;;;;;31.58;15.60;;;-0.50;99.90;;;;;;20856044;28;20029;-79
2023/02/28 19:20:45;;;;;;;28.77;13.20;;;-0.20;99.90;;;;;;20830011;28;20026;-78
2023/02/28 19:30:48;;;;;;;31.35;15.10;;;-0.10;99.90;;;;;;20823845;28;20029;-79
2023/02/28 19:40:49;;;;;;;28.25;13.55;;;0.00;99.90;;;;;;20882000;28;20051;-78
2023/02/28 19:50:55;;;;;;;29.48;13.68;;;0.00;99.90;;;;;;20881097;28;20041;-78
2023/02/28 20:00:55;;;;;;;26.05;13.07;;;0.00;99.90;;;;;;20871836;28;20032;-79
2023/02/28 20:11:05;;;;;;;31.15;14.23;;;0.10;99.90;;;;;;20887989;28;20029;-79
2023/02/28 20:21:09;;;;;;;26.27;13.43;;;0.00;99.90;;;;;;20844863;28;20382;-79
2023/02/28 20:31:17;;;;;;;33.47;15.48;;;-0.20;99.90;;;;;;20913974;28;20036;-79
2023/02/28 20:41:18;;;;;;;28.60;15.00;;;-0.40;99.90;;;;;;20899240;28;20476;-79
2023/02/28 20:51:19;;;;;;;37.45;15.48;;;-0.70;99.90;;;;;;20825191;28;20030;-79
2023/02/28 21:01:26;;;;;;;33.53;15.48;;;-0.90;99.90;;;;;;20857451;28;20067;-80
2023/02/28 21:11:29;;;;;;;33.78;15.68;;;-0.90;99.90;;;;;;20832318;28;20037;-79
2023/02/28 21:21:33;;;;;;;32.00;15.23;;;-1.00;99.90;;;;;;20826188;28;20489;-79
2023/02/28 21:31:35;;;;;;;34.00;15.52;;;-1.40;99.90;;;;;;20774467;28;20527;-78
2023/02/28 21:41:36;;;;;;;39.53;15.95;;;-1.30;99.90;;;;;;20817384;28;20473;-81
2023/02/28 21:51:37;;;;;;;38.25;16.83;;;-1.20;99.90;;;;;;20871402;28;20037;-78
2023/02/28 22:01:40;;;;;;;36.10;15.18;;;-1.10;99.90;;;;;;20868925;28;20552;-80
2023/02/28 22:11:41;;;;;;;37.38;16.67;;;-1.00;99.90;;;;;;20876026;28;20025;-81
2023/02/28 22:21:41;;;;;;;35.38;16.42;;;-0.80;99.90;;;;;;20881993;28;20021;-81
2023/02/28 22:31:42;;;;;;;33.10;14.63;;;-0.70;99.90;;;;;;20875629;28;20034;-80
2023/02/28 22:41:43;;;;;;;34.47;16.58;;;-0.70;99.90;;;;;;20868390;28;20083;-79
2023/02/28 22:51:44;;;;;;;34.75;16.77;;;-0.70;99.90;;;;;;20846946;28;20069;-79
2023/02/28 23:01:44;;;;;;;41.40;18.25;;;-0.50;99.90;;;;;;20826505;28;20116;-79
2023/02/28 23:11:47;;;;;;;36.50;17.98;;;-0.40;99.90;;;;;;20843584;28;20026;-81
2023/02/28 23:21:49;;;;;;;33.30;16.30;;;-0.40;99.90;;;;;;20836899;28;20041;-79
2023/02/28 23:31:50;;;;;;;38.05;17.15;;;-0.40;99.90;;;;;;20853488;28;20060;-79
2023/02/28 23:41:52;;;;;;;39.50;17.27;;;-0.30;99.90;;;;;;20872465;28;20035;-79
2023/02/28 23:51:53;;;;;;;34.50;16.20;;;-0.20;99.90;;;;;;20851509;28;20029;-78
